createdAt,value
2022-10-05T00:00:58.089Z,14.82
2022-10-05T00:02:00.627Z,12.13
2022-10-05T00:03:10.477Z,13.13
2022-10-05T00:04:23.711Z,11.40
2022-10-05T00:05:34.976Z,13.20
2022-10-05T00:06:37.731Z,12.02
2022-10-05T00:07:40.347Z,16.17
2022-10-05T00:08:43.639Z,13.15
2022-10-05T00:09:54.586Z,11.73
2022-10-05T00:10:57.396Z,13.40
2022-10-05T00:12:00.182Z,12.80
2022-10-05T00:13:03.049Z,14.68
2022-10-05T00:14:24.402Z,17.25
2022-10-05T00:15:26.892Z,15.23
2022-10-05T00:16:29.523Z,13.90
2022-10-05T00:17:32.252Z,17.70
2022-10-05T00:18:34.859Z,16.38
2022-10-05T00:19:38.615Z,14.85
2022-10-05T00:20:42.441Z,14.02
2022-10-05T00:21:45.183Z,13.50
2022-10-05T00:22:48.880Z,15.60
2022-10-05T00:23:52.571Z,18.52
2022-10-05T00:25:02.916Z,13.20
2022-10-05T00:26:21.339Z,13.73
2022-10-05T00:27:26.382Z,14.15
2022-10-05T00:28:30.548Z,15.75
2022-10-05T00:29:34.767Z,18.83
2022-10-05T00:30:37.899Z,13.18
2022-10-05T00:31:40.676Z,13.90
2022-10-05T00:32:43.690Z,13.57
2022-10-05T00:33:48.164Z,13.15
2022-10-05T00:34:50.842Z,12.02
2022-10-05T00:35:53.624Z,12.20
2022-10-05T00:36:56.294Z,14.68
2022-10-05T00:37:59.267Z,11.05
2022-10-05T00:39:02.458Z,11.38
2022-10-05T00:40:14.977Z,13.32
2022-10-05T00:41:42.598Z,14.00
2022-10-05T00:42:57.796Z,13.25
2022-10-05T00:44:08.922Z,16.00
2022-10-05T00:45:20.067Z,13.00
2022-10-05T00:46:56.734Z,17.45
2022-10-05T00:48:22.546Z,13.70
2022-10-05T00:49:55.536Z,17.30
2022-10-05T00:51:12.726Z,15.98
2022-10-05T00:52:39.816Z,14.90
2022-10-05T00:54:18.324Z,12.75
2022-10-05T00:55:49.115Z,15.20
2022-10-05T00:57:20.885Z,14.57
2022-10-05T00:58:28.995Z,13.88
2022-10-05T00:59:44.544Z,15.35
2022-10-05T01:01:33.685Z,16.40
2022-10-05T01:02:56.686Z,12.75
2022-10-05T01:04:17.330Z,18.75
2022-10-05T01:05:48.490Z,17.55
2022-10-05T01:07:08.543Z,11.75
2022-10-05T01:08:49.599Z,13.23
2022-10-05T01:10:19.248Z,10.63
2022-10-05T01:11:34.232Z,16.42
2022-10-05T01:13:01.062Z,9.57
2022-10-05T01:14:11.648Z,11.90
2022-10-05T01:16:07.092Z,11.25
2022-10-05T01:17:17.287Z,14.55
2022-10-05T01:18:24.572Z,16.60
2022-10-05T01:19:34.878Z,12.25
2022-10-05T01:21:01.474Z,14.05
2022-10-05T01:22:30.712Z,15.50
2022-10-05T01:23:52.977Z,13.23
2022-10-05T01:27:54.484Z,11.40
2022-10-05T01:29:03.374Z,14.13
2022-10-05T01:30:20.062Z,13.10
2022-10-05T01:31:48.289Z,15.15
2022-10-05T01:33:02.371Z,14.02
2022-10-05T01:34:25.255Z,12.13
2022-10-05T01:36:00.652Z,9.65
2022-10-05T01:37:11.075Z,12.45
2022-10-05T01:38:32.117Z,10.05
2022-10-05T01:39:53.091Z,12.35
2022-10-05T01:40:59.132Z,9.52
2022-10-05T01:42:40.609Z,11.35
2022-10-05T01:43:57.043Z,13.02
2022-10-05T01:45:13.686Z,10.77
2022-10-05T01:46:38.814Z,12.45
2022-10-05T01:47:44.485Z,12.68
2022-10-05T01:48:55.931Z,12.82
2022-10-05T01:50:03.154Z,13.43
2022-10-05T01:51:42.656Z,14.38
2022-10-05T01:53:28.327Z,9.40
2022-10-05T01:54:40.285Z,9.63
2022-10-05T01:56:11.174Z,16.65
2022-10-05T01:57:22.860Z,11.43
2022-10-05T01:59:16.242Z,12.27
2022-10-05T02:00:19.693Z,10.80
2022-10-05T02:01:31.278Z,14.43
2022-10-05T02:03:00.524Z,9.93
2022-10-05T02:04:49.757Z,13.55
2022-10-05T02:05:52.965Z,15.45
2022-10-05T02:06:56.934Z,9.95
2022-10-05T02:08:04.100Z,14.30
2022-10-05T02:09:13.826Z,12.10
2022-10-05T02:10:31.724Z,10.50
2022-10-05T02:11:36.771Z,12.90
2022-10-05T02:12:39.561Z,11.25
2022-10-05T02:13:50.853Z,10.40
2022-10-05T02:14:58.595Z,10.82
2022-10-05T02:16:08.603Z,15.50
2022-10-05T02:17:18.104Z,10.27
2022-10-05T02:18:24.009Z,12.32
2022-10-05T02:19:42.889Z,14.27
2022-10-05T02:20:45.822Z,12.00
2022-10-05T02:21:54.030Z,11.93
2022-10-05T02:23:03.507Z,15.02
2022-10-05T02:24:10.093Z,14.07
2022-10-05T02:25:23.331Z,15.90
2022-10-05T02:26:26.643Z,12.02
2022-10-05T02:27:36.159Z,15.43
2022-10-05T02:28:58.200Z,11.77
2022-10-05T02:30:05.850Z,10.90
2022-10-05T02:31:22.063Z,9.07
2022-10-05T02:33:33.969Z,11.18
2022-10-05T02:34:42.995Z,13.60
2022-10-05T02:35:51.752Z,13.45
2022-10-05T02:37:14.922Z,9.60
2022-10-05T02:38:54.256Z,12.93
2022-10-05T02:40:16.253Z,13.00
2022-10-05T02:41:41.819Z,14.27
2022-10-05T02:43:14.101Z,11.10
2022-10-05T02:44:50.969Z,11.20
2022-10-05T02:46:07.022Z,10.35
2022-10-05T02:47:29.703Z,12.95
2022-10-05T02:48:54.143Z,11.30
2022-10-05T02:50:17.431Z,10.38
2022-10-05T02:51:21.677Z,11.95
2022-10-05T02:52:50.928Z,13.70
2022-10-05T02:54:02.646Z,14.77
2022-10-05T02:55:18.621Z,18.77
2022-10-05T02:56:29.924Z,9.77
2022-10-05T02:57:39.034Z,9.95
2022-10-05T02:59:14.981Z,11.40
2022-10-05T03:00:24.265Z,9.65
2022-10-05T03:01:50.770Z,9.07
2022-10-05T03:03:36.575Z,13.38
2022-10-05T03:05:11.777Z,10.65
2022-10-05T03:06:32.025Z,11.20
2022-10-05T03:07:43.880Z,12.80
2022-10-05T03:09:01.846Z,10.05
2022-10-05T03:10:27.193Z,11.25
2022-10-05T03:12:00.827Z,9.32
2022-10-05T03:13:45.316Z,12.95
2022-10-05T03:15:22.297Z,10.52
2022-10-05T03:16:30.745Z,10.07
2022-10-05T03:17:55.141Z,9.52
2022-10-05T03:19:22.327Z,12.30
2022-10-05T03:20:50.791Z,12.25
2022-10-05T03:22:17.774Z,11.45
2022-10-05T03:23:47.180Z,10.23
2022-10-05T03:25:19.365Z,13.48
2022-10-05T03:26:28.948Z,9.85
2022-10-05T03:28:08.756Z,12.60
2022-10-05T03:29:26.428Z,11.00
2022-10-05T03:30:34.444Z,11.75
2022-10-05T03:31:50.888Z,12.75
2022-10-05T03:33:11.541Z,10.35
2022-10-05T03:34:20.862Z,11.15
2022-10-05T03:35:35.904Z,13.35
2022-10-05T03:37:08.505Z,11.10
2022-10-05T03:38:29.754Z,11.90
2022-10-05T03:39:49.410Z,9.38
2022-10-05T03:41:18.894Z,14.15
2022-10-05T03:42:56.238Z,9.88
2022-10-05T03:44:11.671Z,15.27
2022-10-05T03:45:41.574Z,12.25
2022-10-05T03:46:59.388Z,12.52
2022-10-05T03:48:08.760Z,14.15
2022-10-05T03:49:28.154Z,14.77
2022-10-05T03:50:51.247Z,13.25
2022-10-05T03:52:05.044Z,13.77
2022-10-05T03:53:15.150Z,15.45
2022-10-05T03:54:26.680Z,11.93
2022-10-05T03:55:41.368Z,20.75
2022-10-05T03:57:14.140Z,17.00
2022-10-05T03:58:29.158Z,18.27
2022-10-05T03:59:40.222Z,14.85
2022-10-05T04:00:45.355Z,12.67
2022-10-05T04:01:57.180Z,15.15
2022-10-05T04:03:24.883Z,14.88
2022-10-05T04:04:54.174Z,11.77
2022-10-05T04:06:04.403Z,14.98
2022-10-05T04:07:15.521Z,17.52
2022-10-05T04:08:34.953Z,16.92
2022-10-05T04:09:42.932Z,17.65
2022-10-05T04:10:54.661Z,15.85
2022-10-05T04:12:46.821Z,14.77
2022-10-05T04:13:54.987Z,11.43
2022-10-05T04:15:00.851Z,13.48
2022-10-05T04:16:20.521Z,12.73
2022-10-05T04:17:43.951Z,13.80
2022-10-05T04:19:05.851Z,10.82
2022-10-05T04:20:20.547Z,11.98
2022-10-05T04:21:32.725Z,10.77
2022-10-05T04:22:41.218Z,11.52
2022-10-05T04:24:15.595Z,13.77
2022-10-05T04:25:27.402Z,14.63
2022-10-05T04:27:55.493Z,13.00
2022-10-05T04:29:45.095Z,9.73
2022-10-05T04:30:49.958Z,16.60
2022-10-05T04:32:04.888Z,12.52
2022-10-05T04:33:16.105Z,11.95
2022-10-05T04:35:17.259Z,12.85
2022-10-05T04:36:27.116Z,12.82
2022-10-05T04:37:58.236Z,16.63
2022-10-05T04:39:01.014Z,14.93
2022-10-05T04:40:12.864Z,16.00
2022-10-05T04:41:45.900Z,11.88
2022-10-05T04:43:33.762Z,13.15
2022-10-05T04:44:48.780Z,11.80
2022-10-05T04:46:12.735Z,14.13
2022-10-05T04:47:41.784Z,22.45
2022-10-05T04:49:02.393Z,14.63
2022-10-05T04:50:45.164Z,17.25
2022-10-05T04:52:14.572Z,19.80
2022-10-05T04:53:25.057Z,10.85
2022-10-05T04:54:55.078Z,16.67
2022-10-05T04:56:26.616Z,12.20
2022-10-05T04:57:52.122Z,11.27
2022-10-05T04:59:27.581Z,17.33
2022-10-05T05:01:14.163Z,10.13
2022-10-05T05:02:39.578Z,18.48
2022-10-05T05:04:24.390Z,16.02
2022-10-05T05:06:15.392Z,10.80
2022-10-05T05:07:45.321Z,14.02
2022-10-05T05:08:51.102Z,18.20
2022-10-05T05:10:18.999Z,15.27
2022-10-05T05:11:24.576Z,11.82
2022-10-05T05:12:27.952Z,17.98
2022-10-05T05:13:39.376Z,16.60
2022-10-05T05:14:55.417Z,14.02
2022-10-05T05:16:31.454Z,14.00
2022-10-05T05:18:05.776Z,13.52
2022-10-05T05:19:14.136Z,20.15
2022-10-05T05:20:22.915Z,13.75
2022-10-05T05:21:38.019Z,16.35
2022-10-05T05:22:49.015Z,20.10
2022-10-05T05:24:05.904Z,14.70
2022-10-05T05:25:35.860Z,12.35
2022-10-05T05:27:03.380Z,11.73
2022-10-05T05:28:30.613Z,22.98
2022-10-05T05:29:44.438Z,19.23
2022-10-05T05:31:15.952Z,22.90
2022-10-05T05:32:33.358Z,23.75
2022-10-05T05:33:56.124Z,17.23
2022-10-05T05:35:18.002Z,19.60
2022-10-05T05:36:32.906Z,14.37
2022-10-05T05:37:41.767Z,15.52
2022-10-05T05:39:05.445Z,12.45
2022-10-05T05:40:28.644Z,12.38
2022-10-05T05:41:39.473Z,12.10
2022-10-05T05:43:00.019Z,11.90
2022-10-05T05:44:36.491Z,11.70
2022-10-05T05:45:44.294Z,16.00
2022-10-05T05:47:05.026Z,14.60
2022-10-05T05:48:37.814Z,10.23
2022-10-05T05:49:49.477Z,12.90
2022-10-05T05:51:01.132Z,16.98
2022-10-05T05:52:19.942Z,8.55
2022-10-05T05:53:41.601Z,12.18
2022-10-05T05:54:46.200Z,19.90
2022-10-05T05:55:52.393Z,13.60
2022-10-05T05:56:58.482Z,13.25
2022-10-05T05:58:13.016Z,18.15
2022-10-05T05:59:29.204Z,12.45
2022-10-05T06:00:52.355Z,16.33
2022-10-05T06:02:00.831Z,16.45
2022-10-05T06:03:11.456Z,12.05
2022-10-05T06:04:17.725Z,13.80
2022-10-05T06:05:40.905Z,11.57
2022-10-05T06:06:50.319Z,15.60
2022-10-05T06:07:54.354Z,11.93
2022-10-05T06:08:58.541Z,10.25
2022-10-05T06:10:36.328Z,11.73
2022-10-05T06:11:54.209Z,13.25
2022-10-05T06:13:01.819Z,10.50
2022-10-05T06:15:00.237Z,13.00
2022-10-05T06:16:13.360Z,13.68
2022-10-05T06:17:43.576Z,11.02
2022-10-05T06:18:50.857Z,9.07
2022-10-05T06:20:02.438Z,10.32
2022-10-05T06:21:40.185Z,13.82
2022-10-05T06:22:45.288Z,12.93
2022-10-05T06:24:26.408Z,11.00
2022-10-05T06:25:58.159Z,18.73
2022-10-05T06:27:21.882Z,16.63
2022-10-05T06:28:25.791Z,11.98
2022-10-05T06:30:10.534Z,16.33
2022-10-05T06:31:23.793Z,10.73
2022-10-05T06:32:50.173Z,11.00
2022-10-05T06:34:26.119Z,15.13
2022-10-05T06:35:43.283Z,14.13
2022-10-05T06:36:50.349Z,7.50
2022-10-05T06:38:05.300Z,17.05
2022-10-05T06:39:26.347Z,11.63
2022-10-05T06:40:44.274Z,10.13
2022-10-05T06:41:56.084Z,11.45
2022-10-05T06:43:46.430Z,13.93
2022-10-05T06:45:39.189Z,8.55
2022-10-05T06:48:49.831Z,10.13
2022-10-05T06:50:18.452Z,13.65
2022-10-05T06:51:43.920Z,8.93
2022-10-05T06:54:44.312Z,10.48
2022-10-05T06:56:10.206Z,12.77
2022-10-05T06:57:32.351Z,14.50
2022-10-05T06:58:50.936Z,15.15
2022-10-05T07:00:07.633Z,9.52
2022-10-05T07:01:18.295Z,10.77
2022-10-05T07:02:32.460Z,10.30
2022-10-05T07:03:46.283Z,9.90
2022-10-05T07:05:04.174Z,11.85
2022-10-05T07:06:17.226Z,12.80
2022-10-05T07:07:24.880Z,8.05
2022-10-05T07:09:12.099Z,8.32
2022-10-05T07:10:29.172Z,10.80
2022-10-05T07:12:09.188Z,9.38
2022-10-05T07:13:32.332Z,9.80
2022-10-05T07:15:22.058Z,17.10
2022-10-05T07:16:46.449Z,7.22
2022-10-05T07:17:57.996Z,9.70
2022-10-05T07:19:33.547Z,9.52
2022-10-05T07:20:56.664Z,9.05
2022-10-05T07:22:33.424Z,15.48
2022-10-05T07:23:56.285Z,11.55
2022-10-05T07:25:13.802Z,8.88
2022-10-05T07:26:23.482Z,7.78
2022-10-05T07:27:29.423Z,11.77
2022-10-05T07:29:07.111Z,6.53
2022-10-05T07:30:12.955Z,9.35
2022-10-05T07:31:45.726Z,8.98
2022-10-05T07:32:50.738Z,8.52
2022-10-05T07:34:10.245Z,8.77
2022-10-05T07:35:38.966Z,10.38
2022-10-05T07:37:05.668Z,7.95
2022-10-05T07:38:18.435Z,6.38
2022-10-05T07:39:59.149Z,6.40
2022-10-05T07:41:13.364Z,10.70
2022-10-05T07:42:42.455Z,11.40
2022-10-05T07:44:02.181Z,8.00
2022-10-05T07:45:16.126Z,11.27
2022-10-05T07:46:43.908Z,8.75
2022-10-05T07:47:54.474Z,10.02
2022-10-05T07:49:17.883Z,10.60
2022-10-05T07:50:38.443Z,7.63
2022-10-05T07:51:45.349Z,16.30
2022-10-05T07:53:01.759Z,6.10
2022-10-05T07:54:18.095Z,9.10
2022-10-05T07:55:26.681Z,5.53
2022-10-05T07:56:35.440Z,9.18
2022-10-05T07:57:58.402Z,12.48
2022-10-05T07:59:07.892Z,6.65
2022-10-05T08:00:15.999Z,11.05
2022-10-05T08:01:42.343Z,11.52
2022-10-05T08:03:00.028Z,7.57
2022-10-05T08:04:09.362Z,9.23
2022-10-05T08:05:26.381Z,8.48
2022-10-05T08:06:40.761Z,11.75
2022-10-05T08:07:43.493Z,6.85
2022-10-05T08:08:54.726Z,7.60
2022-10-05T08:10:28.887Z,10.63
2022-10-05T08:11:38.697Z,5.18
2022-10-05T08:12:58.065Z,5.97
2022-10-05T08:14:16.789Z,9.57
2022-10-05T08:15:23.833Z,7.70
2022-10-05T08:16:30.271Z,7.70
2022-10-05T08:18:04.041Z,6.85
2022-10-05T08:19:17.664Z,9.00
2022-10-05T08:20:34.013Z,8.32
2022-10-05T08:21:40.461Z,9.30
2022-10-05T08:22:48.343Z,6.68
2022-10-05T08:23:58.262Z,5.20
2022-10-05T08:25:05.761Z,6.22
2022-10-05T08:26:35.157Z,5.55
2022-10-05T08:27:49.115Z,8.80
2022-10-05T08:29:20.821Z,7.78
2022-10-05T08:30:23.781Z,6.28
2022-10-05T08:31:31.947Z,8.00
2022-10-05T08:32:58.339Z,7.75
2022-10-05T08:34:26.831Z,6.95
2022-10-05T08:35:55.957Z,6.57
2022-10-05T08:37:30.835Z,9.68
2022-10-05T08:38:34.198Z,6.45
2022-10-05T08:39:40.957Z,4.60
2022-10-05T08:41:07.187Z,4.32
2022-10-05T08:42:31.001Z,5.97
2022-10-05T08:44:30.599Z,9.02
2022-10-05T08:46:00.208Z,7.43
2022-10-05T08:47:21.683Z,4.97
2022-10-05T08:48:54.609Z,5.65
2022-10-05T08:50:08.281Z,11.00
2022-10-05T08:51:31.784Z,10.23
2022-10-05T08:52:50.102Z,9.02
2022-10-05T08:54:07.489Z,7.88
2022-10-05T08:55:10.015Z,7.47
2022-10-05T08:56:33.325Z,8.30
2022-10-05T08:57:45.190Z,10.43
2022-10-05T08:59:29.856Z,6.82
2022-10-05T09:00:56.394Z,6.60
2022-10-05T09:02:10.452Z,6.47
2022-10-05T09:03:18.708Z,9.75
2022-10-05T09:04:46.575Z,9.13
2022-10-05T09:06:07.286Z,8.70
2022-10-05T09:08:29.872Z,12.00
2022-10-05T09:09:43.855Z,6.57
2022-10-05T09:11:17.199Z,5.45
2022-10-05T09:13:00.462Z,6.15
2022-10-05T09:14:14.537Z,6.00
2022-10-05T09:15:42.571Z,7.00
2022-10-05T09:17:04.779Z,6.43
2022-10-05T09:18:42.040Z,5.80
2022-10-05T09:20:00.293Z,4.07
2022-10-05T09:21:28.448Z,9.00
2022-10-05T09:22:43.791Z,8.55
2022-10-05T09:23:49.915Z,10.50
2022-10-05T09:24:57.985Z,9.60
2022-10-05T09:26:09.285Z,5.57
2022-10-05T09:27:19.957Z,7.63
2022-10-05T09:28:55.842Z,7.43
2022-10-05T09:30:16.057Z,6.25
2022-10-05T09:31:36.194Z,10.95
2022-10-05T09:33:14.633Z,8.73
2022-10-05T09:34:36.088Z,7.28
2022-10-05T09:35:59.056Z,4.68
2022-10-05T09:37:27.395Z,6.60
2022-10-05T09:38:30.222Z,4.95
2022-10-05T09:39:54.271Z,5.32
2022-10-05T09:41:36.255Z,6.03
2022-10-05T09:42:43.191Z,7.70
2022-10-05T09:43:48.692Z,7.68
2022-10-05T09:45:24.947Z,6.68
2022-10-05T09:47:01.497Z,6.78
2022-10-05T09:48:07.142Z,9.38
2022-10-05T09:49:39.909Z,4.93
2022-10-05T09:51:01.892Z,5.68
2022-10-05T09:52:13.063Z,6.80
2022-10-05T09:53:47.016Z,7.00
2022-10-05T09:55:10.985Z,4.13
2022-10-05T09:56:20.530Z,5.47
2022-10-05T09:57:25.982Z,5.93
2022-10-05T09:58:37.329Z,4.80
2022-10-05T10:01:47.982Z,6.03
2022-10-05T10:03:13.622Z,4.50
2022-10-05T10:04:34.896Z,6.25
2022-10-05T10:06:11.147Z,7.75
2022-10-05T10:07:31.976Z,13.88
2022-10-05T10:08:45.980Z,5.00
2022-10-05T10:10:31.017Z,8.18
2022-10-05T10:11:49.008Z,9.30
2022-10-05T10:13:10.951Z,4.85
2022-10-05T10:14:50.011Z,4.82
2022-10-05T10:16:14.031Z,7.10
2022-10-05T10:17:41.292Z,4.18
2022-10-05T10:18:54.857Z,4.70
2022-10-05T10:20:38.274Z,5.22
2022-10-05T10:22:22.042Z,5.93
2022-10-05T10:24:01.353Z,8.73
2022-10-05T10:25:40.539Z,6.85
2022-10-05T10:27:16.611Z,5.78
2022-10-05T10:28:20.486Z,3.40
2022-10-05T10:29:41.873Z,5.20
2022-10-05T10:30:56.320Z,5.10
2022-10-05T10:32:28.528Z,6.18
2022-10-05T10:34:02.081Z,3.75
2022-10-05T10:35:33.065Z,5.07
2022-10-05T10:36:54.164Z,5.80
2022-10-05T10:38:15.357Z,3.88
2022-10-05T10:39:38.685Z,5.10
2022-10-05T10:41:35.574Z,4.00
2022-10-05T10:43:03.873Z,3.92
2022-10-05T10:44:33.612Z,4.30
2022-10-05T10:45:56.363Z,5.47
2022-10-05T10:47:39.182Z,3.65
2022-10-05T10:49:09.652Z,7.35
2022-10-05T10:50:43.516Z,2.75
2022-10-05T10:51:58.320Z,7.78
2022-10-05T10:53:28.756Z,4.15
2022-10-05T10:55:22.647Z,4.32
2022-10-05T10:56:40.348Z,8.50
2022-10-05T10:58:04.224Z,5.00
2022-10-05T10:59:32.200Z,4.68
2022-10-05T11:00:47.201Z,4.68
2022-10-05T11:02:05.007Z,5.63
2022-10-05T11:03:32.267Z,3.42
2022-10-05T11:04:53.962Z,10.05
2022-10-05T11:06:23.834Z,5.13
2022-10-05T11:08:00.206Z,5.10
2022-10-05T11:09:28.175Z,5.85
2022-10-05T11:10:42.843Z,4.43
2022-10-05T11:12:09.496Z,5.28
2022-10-05T11:13:26.977Z,4.95
2022-10-05T11:14:47.459Z,9.90
2022-10-05T11:16:30.968Z,3.67
2022-10-05T11:17:51.335Z,5.75
2022-10-05T11:19:06.059Z,6.43
2022-10-05T11:20:23.678Z,4.10
2022-10-05T11:21:36.756Z,6.10
2022-10-05T11:22:53.566Z,6.03
2022-10-05T11:24:17.440Z,3.42
2022-10-05T11:25:32.047Z,6.63
2022-10-05T11:27:13.267Z,5.78
2022-10-05T11:28:28.948Z,8.27
2022-10-05T11:29:47.815Z,8.75
2022-10-05T11:31:06.165Z,4.18
2022-10-05T11:32:37.783Z,5.30
2022-10-05T11:33:58.342Z,4.65
2022-10-05T11:37:03.069Z,4.50
2022-10-05T11:38:28.138Z,8.80
2022-10-05T11:39:56.132Z,6.53
2022-10-05T11:41:17.871Z,6.03
2022-10-05T11:42:46.220Z,4.93
2022-10-05T11:44:10.754Z,5.32
2022-10-05T11:45:21.820Z,3.28
2022-10-05T11:47:05.706Z,4.55
2022-10-05T11:48:32.113Z,7.60
2022-10-05T11:50:19.164Z,8.02
2022-10-05T11:51:28.830Z,6.72
2022-10-05T11:52:45.128Z,4.38
2022-10-05T11:54:03.015Z,6.10
2022-10-05T11:55:37.958Z,4.13
2022-10-05T11:56:44.262Z,3.80
2022-10-05T11:58:00.877Z,4.45
2022-10-05T11:59:29.026Z,8.88
2022-10-05T12:01:08.455Z,4.63
2022-10-05T12:02:42.859Z,3.17
2022-10-05T12:04:00.351Z,4.85
2022-10-05T12:05:34.469Z,5.45
2022-10-05T12:06:54.799Z,3.88
2022-10-05T12:08:04.009Z,3.25
2022-10-05T12:09:36.549Z,2.92
2022-10-05T12:10:48.014Z,5.38
2022-10-05T12:11:54.314Z,10.68
2022-10-05T12:13:02.719Z,4.93
2022-10-05T12:14:24.294Z,5.38
2022-10-05T12:15:41.863Z,4.68
2022-10-05T12:17:00.827Z,7.13
2022-10-05T12:18:13.548Z,6.90
2022-10-05T12:19:28.419Z,4.13
2022-10-05T12:20:35.734Z,8.95
2022-10-05T12:21:57.167Z,3.50
2022-10-05T12:23:05.149Z,5.05
2022-10-05T12:24:36.241Z,9.15
2022-10-05T12:26:20.318Z,8.93
2022-10-05T12:27:25.377Z,4.60
2022-10-05T12:28:38.417Z,6.63
2022-10-05T12:30:02.331Z,6.57
2022-10-05T12:31:17.432Z,5.65
2022-10-05T12:32:27.600Z,8.50
2022-10-05T12:33:47.817Z,4.95
2022-10-05T12:35:11.715Z,10.45
2022-10-05T12:36:59.552Z,8.77
2022-10-05T12:38:08.143Z,4.63
2022-10-05T12:39:25.841Z,5.43
2022-10-05T12:40:32.895Z,5.97
2022-10-05T12:42:21.649Z,8.73
2022-10-05T12:43:38.539Z,8.05
2022-10-05T12:44:49.345Z,3.72
2022-10-05T12:46:24.785Z,9.65
2022-10-05T12:47:53.921Z,3.25
2022-10-05T12:49:05.333Z,4.30
2022-10-05T12:50:33.003Z,8.93
2022-10-05T12:51:43.739Z,6.00
2022-10-05T12:53:04.987Z,8.27
2022-10-05T12:54:44.602Z,7.68
2022-10-05T12:56:01.946Z,5.03
2022-10-05T12:57:34.110Z,4.85
2022-10-05T12:58:54.888Z,4.78
2022-10-05T13:00:12.587Z,7.75
2022-10-05T13:01:35.901Z,4.10
2022-10-05T13:02:45.768Z,5.25
2022-10-05T13:04:20.644Z,5.90
2022-10-05T13:05:32.258Z,4.90
2022-10-05T13:06:44.724Z,6.47
2022-10-05T13:08:02.096Z,10.05
2022-10-05T13:09:31.579Z,8.32
2022-10-05T13:11:14.193Z,4.30
2022-10-05T13:12:35.498Z,4.78
2022-10-05T13:13:46.891Z,12.18
2022-10-05T13:15:19.193Z,10.35
2022-10-05T13:16:29.002Z,8.02
2022-10-05T13:17:41.603Z,7.25
2022-10-05T13:19:08.777Z,8.95
2022-10-05T13:20:33.664Z,8.85
2022-10-05T13:22:03.994Z,6.55
2022-10-05T13:23:31.348Z,9.15
2022-10-05T13:24:43.082Z,8.73
2022-10-05T13:25:52.788Z,8.35
2022-10-05T13:27:04.116Z,6.35
2022-10-05T13:28:56.496Z,6.65
2022-10-05T13:30:18.140Z,8.52
2022-10-05T13:31:34.542Z,4.25
2022-10-05T13:32:57.136Z,6.28
2022-10-05T13:34:18.765Z,3.97
2022-10-05T13:35:51.191Z,7.70
2022-10-05T13:37:05.960Z,7.90
2022-10-05T13:38:34.310Z,7.47
2022-10-05T13:39:50.950Z,8.05
2022-10-05T13:41:17.432Z,3.63
2022-10-05T13:42:40.551Z,10.68
2022-10-05T13:44:03.168Z,6.70
2022-10-05T13:45:14.514Z,13.65
2022-10-05T13:46:33.468Z,9.43
2022-10-05T13:47:40.031Z,8.75
2022-10-05T13:49:20.713Z,11.07
2022-10-05T13:50:45.625Z,8.07
2022-10-05T13:52:31.031Z,8.95
2022-10-05T13:53:56.526Z,8.48
2022-10-05T13:55:25.102Z,10.00
2022-10-05T13:56:56.795Z,12.20
2022-10-05T13:57:59.574Z,9.40
2022-10-05T13:59:14.275Z,11.45
2022-10-05T14:00:27.037Z,10.52
2022-10-05T14:01:58.916Z,8.27
2022-10-05T14:03:02.137Z,6.70
2022-10-05T14:04:06.238Z,10.00
2022-10-05T14:05:22.733Z,6.55
2022-10-05T14:06:30.738Z,8.73
2022-10-05T14:07:48.306Z,6.35
2022-10-05T14:08:54.381Z,8.55
2022-10-05T14:09:58.874Z,8.10
2022-10-05T14:11:23.745Z,6.47
2022-10-05T14:12:27.593Z,7.82
2022-10-05T14:13:47.183Z,12.00
2022-10-05T14:14:57.746Z,10.40
2022-10-05T14:17:39.564Z,13.40
2022-10-05T14:18:57.021Z,5.97
2022-10-05T14:20:01.113Z,8.88
2022-10-05T14:21:16.577Z,10.57
2022-10-05T14:22:24.876Z,8.15
2022-10-05T14:23:27.596Z,7.35
2022-10-05T14:24:44.811Z,8.55
2022-10-05T14:25:53.969Z,9.23
2022-10-05T14:26:58.275Z,11.65
2022-10-05T14:28:12.529Z,7.50
2022-10-05T14:29:15.137Z,9.38
2022-10-05T14:30:23.818Z,14.32
2022-10-05T14:31:35.541Z,10.60
2022-10-05T14:32:56.695Z,5.90
2022-10-05T14:34:39.485Z,10.23
2022-10-05T14:35:45.345Z,8.68
2022-10-05T14:36:56.782Z,7.35
2022-10-05T14:38:02.267Z,6.93
2022-10-05T14:39:12.815Z,8.57
2022-10-05T14:40:41.772Z,8.60
2022-10-05T14:41:49.578Z,6.22
2022-10-05T14:42:52.380Z,7.15
2022-10-05T14:44:15.635Z,9.60
2022-10-05T14:45:20.315Z,6.13
2022-10-05T14:46:28.194Z,6.88
2022-10-05T14:47:31.940Z,5.68
2022-10-05T14:48:43.133Z,8.55
2022-10-05T14:50:10.876Z,7.05
2022-10-05T14:51:25.702Z,6.13
2022-10-05T14:52:32.851Z,11.98
2022-10-05T14:53:41.220Z,5.18
2022-10-05T14:54:57.246Z,12.68
2022-10-05T14:56:17.376Z,12.52
2022-10-05T14:57:43.507Z,6.60
2022-10-05T14:59:07.725Z,5.55
2022-10-05T15:00:16.743Z,8.85
2022-10-05T15:01:39.410Z,9.55
2022-10-05T15:03:18.896Z,9.63
2022-10-05T15:04:30.451Z,6.47
2022-10-05T15:05:42.377Z,7.22
2022-10-05T15:07:05.336Z,11.43
2022-10-05T15:08:24.325Z,7.13
2022-10-05T15:09:50.554Z,7.70
2022-10-05T15:11:31.906Z,13.85
2022-10-05T15:12:49.594Z,6.15
2022-10-05T15:13:53.122Z,8.00
2022-10-05T15:15:05.947Z,11.40
2022-10-05T15:16:14.620Z,6.03
2022-10-05T15:17:23.726Z,8.65
2022-10-05T15:18:41.060Z,8.38
2022-10-05T15:20:02.149Z,6.45
2022-10-05T15:21:30.349Z,6.80
2022-10-05T15:22:48.183Z,9.13
2022-10-05T15:24:21.392Z,10.10
2022-10-05T15:25:32.954Z,5.57
2022-10-05T15:26:41.306Z,4.57
2022-10-05T15:28:14.915Z,8.85
2022-10-05T15:29:29.986Z,10.32
2022-10-05T15:30:36.982Z,5.97
2022-10-05T15:31:48.932Z,6.13
2022-10-05T15:33:08.915Z,5.63
2022-10-05T15:34:15.901Z,6.07
2022-10-05T15:35:42.619Z,4.65
2022-10-05T15:37:14.399Z,7.00
2022-10-05T15:38:21.332Z,6.38
2022-10-05T15:39:36.362Z,4.38
2022-10-05T15:41:14.987Z,5.43
2022-10-05T15:42:20.132Z,8.88
2022-10-05T15:43:23.710Z,8.55
2022-10-05T15:44:48.223Z,6.55
2022-10-05T15:46:18.153Z,5.50
2022-10-05T15:47:43.659Z,3.97
2022-10-05T15:48:53.704Z,8.48
2022-10-05T15:50:28.397Z,6.60
2022-10-05T15:51:51.128Z,5.30
2022-10-05T15:53:06.963Z,13.45
2022-10-05T15:54:41.779Z,6.00
2022-10-05T15:55:56.562Z,6.88
2022-10-05T15:56:59.826Z,8.13
2022-10-05T15:58:24.381Z,8.00
2022-10-05T15:59:37.640Z,7.28
2022-10-05T16:00:49.319Z,7.35
2022-10-05T16:02:00.813Z,7.97
2022-10-05T16:03:11.241Z,9.15
2022-10-05T16:04:30.188Z,9.35
2022-10-05T16:05:53.893Z,7.10
2022-10-05T16:07:19.626Z,7.15
2022-10-05T16:08:54.350Z,9.52
2022-10-05T16:10:18.554Z,8.55
2022-10-05T16:11:32.789Z,6.25
2022-10-05T16:13:12.076Z,6.43
2022-10-05T16:14:30.208Z,9.52
2022-10-05T16:15:42.687Z,7.32
2022-10-05T16:17:06.714Z,9.57
2022-10-05T16:18:48.476Z,11.75
2022-10-05T16:20:09.554Z,7.35
2022-10-05T16:21:29.997Z,7.15
2022-10-05T16:23:06.506Z,4.93
2022-10-05T16:24:15.935Z,7.65
2022-10-05T16:25:22.569Z,5.28
2022-10-05T16:26:43.816Z,11.93
2022-10-05T16:28:07.755Z,11.35
2022-10-05T16:29:43.519Z,7.05
2022-10-05T16:31:19.298Z,7.38
2022-10-05T16:32:31.002Z,9.20
2022-10-05T16:34:06.870Z,10.15
2022-10-05T16:35:50.262Z,8.93
2022-10-05T16:37:09.842Z,8.20
2022-10-05T16:38:34.616Z,11.68
2022-10-05T16:40:00.360Z,7.60
2022-10-05T16:41:05.810Z,10.95
2022-10-05T16:42:17.252Z,8.38
2022-10-05T16:43:46.057Z,10.63
2022-10-05T16:45:06.939Z,9.80
2022-10-05T16:47:47.559Z,10.80
2022-10-05T16:48:56.894Z,6.85
2022-10-05T16:50:17.849Z,8.75
2022-10-05T16:52:29.535Z,9.38
2022-10-05T16:53:46.010Z,8.48
2022-10-05T16:54:54.295Z,8.95
2022-10-05T16:56:02.336Z,10.68
2022-10-05T16:57:29.281Z,12.23
2022-10-05T16:59:13.021Z,10.30
2022-10-05T17:00:20.964Z,10.43
2022-10-05T17:01:48.496Z,6.75
2022-10-05T17:03:00.246Z,13.45
2022-10-05T17:04:58.102Z,11.70
2022-10-05T17:06:30.962Z,8.27
2022-10-05T17:07:55.102Z,8.35
2022-10-05T17:09:17.166Z,6.82
2022-10-05T17:10:37.699Z,7.05
2022-10-05T17:12:03.526Z,9.60
2022-10-05T17:13:28.740Z,9.02
2022-10-05T17:14:43.457Z,16.25
2022-10-05T17:16:08.315Z,11.00
2022-10-05T17:17:29.378Z,10.50
2022-10-05T17:19:00.877Z,9.20
2022-10-05T17:20:07.072Z,9.90
2022-10-05T17:21:17.338Z,11.70
2022-10-05T17:22:25.318Z,10.38
2022-10-05T17:23:32.688Z,8.88
2022-10-05T17:24:54.164Z,15.75
2022-10-05T17:26:16.801Z,9.75
2022-10-05T17:27:55.957Z,9.68
2022-10-05T17:29:28.067Z,7.15
2022-10-05T17:30:48.700Z,9.13
2022-10-05T17:32:33.795Z,9.13
2022-10-05T17:33:59.204Z,10.82
2022-10-05T17:35:04.948Z,12.23
2022-10-05T17:36:12.445Z,10.07
2022-10-05T17:37:32.153Z,10.35
2022-10-05T17:38:34.901Z,9.43
2022-10-05T17:39:53.685Z,10.15
2022-10-05T17:41:16.979Z,11.43
2022-10-05T17:42:32.940Z,12.18
2022-10-05T17:43:35.737Z,10.65
2022-10-05T17:44:38.658Z,11.57